createdAt,value
2018-11-10T00:00:37.465Z,13.17
2018-11-10T00:03:10.042Z,14.83
2018-11-10T00:05:40.981Z,15.13
2018-11-10T00:08:14.505Z,14.10
2018-11-10T00:10:45.829Z,15.73
2018-11-10T00:13:18.920Z,15.77
2018-11-10T00:15:50.882Z,16.30
2018-11-10T00:18:21.828Z,15.27
2018-11-10T00:20:53.988Z,17.57
2018-11-10T00:23:24.283Z,15.77
2018-11-10T00:25:55.561Z,15.63
2018-11-10T00:28:26.296Z,17.17
2018-11-10T00:30:57.337Z,15.80
2018-11-10T00:33:29.914Z,18.50
2018-11-10T00:36:00.853Z,17.60
2018-11-10T00:38:31.486Z,19.27
2018-11-10T00:41:03.858Z,17.53
2018-11-10T00:43:34.353Z,17.90
2018-11-10T00:46:06.863Z,19.93
2018-11-10T00:48:37.497Z,20.03
2018-11-10T00:51:09.454Z,19.90
2018-11-10T00:53:40.602Z,20.33
2018-11-10T00:56:11.337Z,20.20
2018-11-10T00:58:43.513Z,20.37
2018-11-10T01:01:14.779Z,18.83
2018-11-10T01:03:48.533Z,18.97
2018-11-10T01:06:20.832Z,21.07
2018-11-10T01:08:56.577Z,22.60
2018-11-10T01:11:27.522Z,20.17
2018-11-10T01:13:59.673Z,18.57
2018-11-10T01:16:38.409Z,23.00
2018-11-10T01:19:10.886Z,20.33
2018-11-10T01:21:43.053Z,21.73
2018-11-10T01:24:16.757Z,20.10
2018-11-10T01:26:50.976Z,19.10
2018-11-10T01:29:22.073Z,19.73
2018-11-10T01:31:54.486Z,19.73
2018-11-10T01:34:25.046Z,20.43
2018-11-10T01:36:55.652Z,20.70
2018-11-10T01:39:27.208Z,20.03
2018-11-10T01:41:58.468Z,22.73
2018-11-10T01:44:29.083Z,20.20
2018-11-10T01:47:01.247Z,20.83
2018-11-10T01:49:33.112Z,20.03
2018-11-10T01:52:05.467Z,21.10
2018-11-10T01:54:36.529Z,20.93
2018-11-10T01:57:07.568Z,21.23
2018-11-10T01:59:39.225Z,20.90
2018-11-10T02:02:10.164Z,23.27
2018-11-10T02:04:41.061Z,22.50
2018-11-10T02:07:12.553Z,22.20
2018-11-10T02:09:44.594Z,23.40
2018-11-10T02:12:19.655Z,25.17
2018-11-10T02:14:51.413Z,21.97
2018-11-10T02:17:22.150Z,23.87
2018-11-10T02:19:53.598Z,25.07
2018-11-10T02:22:25.464Z,22.03
2018-11-10T02:24:59.886Z,24.70
2018-11-10T02:27:32.766Z,25.17
2018-11-10T02:30:03.206Z,24.97
2018-11-10T02:32:34.031Z,23.87
2018-11-10T02:35:06.142Z,25.10
2018-11-10T02:37:38.525Z,26.27
2018-11-10T02:40:12.583Z,27.17
2018-11-10T02:42:44.818Z,31.37
2018-11-10T02:45:17.019Z,30.20
2018-11-10T02:47:47.551Z,29.07
2018-11-10T02:50:19.105Z,30.13
2018-11-10T02:52:50.265Z,28.47
2018-11-10T02:55:21.398Z,35.27
2018-11-10T02:57:54.583Z,31.77
2018-11-10T03:00:26.057Z,31.77
2018-11-10T03:02:56.251Z,34.33
2018-11-10T03:05:26.888Z,29.40
2018-11-10T03:07:59.359Z,32.33
2018-11-10T03:10:29.706Z,30.87
2018-11-10T03:13:00.832Z,32.00
2018-11-10T03:15:31.301Z,29.87
2018-11-10T03:18:02.302Z,33.07
2018-11-10T03:20:32.725Z,32.93
2018-11-10T03:23:11.347Z,30.10
2018-11-10T03:25:46.997Z,34.40
2018-11-10T03:28:17.837Z,34.20
2018-11-10T03:30:47.749Z,31.13
2018-11-10T03:33:18.930Z,30.40
2018-11-10T03:35:51.047Z,33.13
2018-11-10T03:38:23.539Z,32.73
2018-11-10T03:40:54.065Z,37.33
2018-11-10T03:43:25.107Z,30.43
2018-11-10T03:45:56.660Z,33.53
2018-11-10T03:48:28.488Z,30.90
2018-11-10T03:50:59.049Z,32.57
2018-11-10T03:53:30.946Z,38.10
2018-11-10T03:56:01.511Z,32.53
2018-11-10T03:58:32.688Z,36.27
2018-11-10T04:01:10.692Z,34.33
2018-11-10T04:03:43.169Z,36.53
2018-11-10T04:06:15.029Z,38.50
2018-11-10T04:08:46.579Z,34.53
2018-11-10T04:11:18.339Z,36.90
2018-11-10T04:13:50.100Z,36.80
2018-11-10T04:16:22.166Z,34.60
2018-11-10T04:18:53.718Z,33.73
2018-11-10T04:21:25.374Z,30.70
2018-11-10T04:23:56.514Z,35.07
2018-11-10T04:26:28.789Z,32.70
2018-11-10T04:28:59.523Z,36.43
2018-11-10T04:31:31.486Z,35.63
2018-11-10T04:34:02.323Z,36.53
2018-11-10T04:36:33.672Z,38.07
2018-11-10T04:39:04.407Z,37.00
2018-11-10T04:41:35.853Z,35.33
2018-11-10T04:44:07.411Z,36.27
2018-11-10T04:46:38.760Z,37.77
2018-11-10T04:49:11.030Z,38.93
2018-11-10T04:51:44.018Z,39.50
2018-11-10T04:54:14.957Z,36.23
2018-11-10T04:56:46.715Z,37.70
2018-11-10T04:59:20.108Z,37.00
2018-11-10T05:01:54.550Z,34.87
2018-11-10T05:04:24.863Z,38.10
2018-11-10T05:06:57.253Z,36.10
2018-11-10T05:09:29.091Z,35.80
2018-11-10T05:12:00.440Z,36.93
2018-11-10T05:14:31.993Z,38.03
2018-11-10T05:17:02.627Z,36.13
2018-11-10T05:19:34.691Z,41.97
2018-11-10T05:22:05.733Z,38.20
2018-11-10T05:24:36.467Z,35.30
2018-11-10T05:27:07.508Z,36.17
2018-11-10T05:29:39.268Z,38.80
2018-11-10T05:32:11.745Z,37.53
2018-11-10T05:34:42.784Z,39.20
2018-11-10T05:37:14.031Z,42.33
2018-11-10T05:39:44.658Z,40.63
2018-11-10T05:42:15.393Z,43.83
2018-11-10T05:44:46.330Z,43.70
2018-11-10T05:47:17.891Z,41.17
2018-11-10T05:49:53.744Z,41.83
2018-11-10T05:52:27.243Z,46.00
2018-11-10T05:54:59.204Z,39.30
2018-11-10T05:57:30.044Z,42.17
2018-11-10T06:00:02.009Z,40.27
2018-11-10T06:02:32.740Z,42.03
2018-11-10T06:05:03.368Z,38.87
2018-11-10T06:07:34.757Z,41.07
2018-11-10T06:10:05.825Z,39.70
2018-11-10T06:12:36.596Z,36.07
2018-11-10T06:15:10.423Z,38.90
2018-11-10T06:17:41.239Z,37.40
2018-11-10T06:20:13.516Z,40.10
2018-11-10T06:22:44.555Z,40.93
2018-11-10T06:25:15.894Z,39.13
2018-11-10T06:27:47.454Z,38.27
2018-11-10T06:30:22.273Z,40.33
2018-11-10T06:32:58.454Z,37.03
2018-11-10T06:35:36.967Z,37.37
2018-11-10T06:38:13.133Z,33.17
2018-11-10T06:40:48.368Z,36.80
2018-11-10T06:43:24.731Z,34.67
2018-11-10T06:45:57.620Z,35.93
2018-11-10T06:48:30.510Z,36.00
2018-11-10T06:51:05.437Z,35.67
2018-11-10T06:53:42.008Z,33.63
2018-11-10T06:56:13.251Z,33.60
2018-11-10T06:58:45.423Z,35.93
2018-11-10T07:01:17.283Z,34.00
2018-11-10T07:03:49.348Z,34.80
2018-11-10T07:06:22.946Z,32.60
2018-11-10T07:08:56.653Z,34.03
2018-11-10T07:11:29.538Z,34.17
2018-11-10T07:14:01.799Z,35.60
2018-11-10T07:16:35.411Z,34.33
2018-11-10T07:19:07.883Z,30.43
2018-11-10T07:21:40.243Z,30.30
2018-11-10T07:24:11.603Z,31.23
2018-11-10T07:26:43.559Z,30.83
2018-11-10T07:29:21.117Z,29.53
2018-11-10T07:31:58.151Z,30.93
2018-11-10T07:34:33.381Z,30.77
2018-11-10T07:37:15.105Z,30.57
2018-11-10T07:39:50.725Z,28.80
2018-11-10T07:42:24.941Z,28.53
2018-11-10T07:44:59.722Z,29.97
2018-11-10T07:47:37.060Z,27.77
2018-11-10T07:50:27.753Z,31.57
2018-11-10T07:53:00.743Z,30.17
2018-11-10T07:55:33.319Z,27.60
2018-11-10T07:58:08.464Z,27.90
2018-11-10T08:00:41.240Z,29.57
2018-11-10T08:03:13.415Z,28.13
2018-11-10T08:05:45.165Z,25.10
2018-11-10T08:08:21.324Z,29.40
2018-11-10T08:10:53.204Z,25.87
2018-11-10T08:13:28.231Z,28.67
2018-11-10T08:16:03.368Z,28.20
2018-11-10T08:18:37.569Z,24.80
2018-11-10T08:21:12.609Z,27.33
2018-11-10T08:23:46.312Z,29.60
2018-11-10T08:26:18.377Z,25.23
2018-11-10T08:28:51.582Z,24.50
2018-11-10T08:31:28.971Z,26.23
2018-11-10T08:34:01.843Z,22.57
2018-11-10T08:36:33.500Z,27.53
2018-11-10T08:39:06.137Z,23.80
2018-11-10T08:41:45.311Z,21.10
2018-11-10T08:44:19.540Z,22.13
2018-11-10T08:46:57.749Z,21.53
2018-11-10T08:49:32.770Z,21.20
2018-11-10T08:52:07.193Z,21.10
2018-11-10T08:54:42.957Z,21.37
2018-11-10T08:57:18.086Z,20.67
2018-11-10T09:02:41.460Z,21.37
2018-11-10T09:05:15.693Z,17.40
2018-11-10T09:07:47.746Z,17.63
2018-11-10T09:10:23.085Z,19.07
2018-11-10T09:12:56.178Z,22.30
2018-11-10T09:15:30.002Z,19.13
2018-11-10T09:18:03.089Z,22.30
2018-11-10T09:20:38.225Z,29.77
2018-11-10T09:23:12.831Z,27.80
2018-11-10T09:25:45.020Z,29.30
2018-11-10T09:28:20.672Z,31.93
2018-11-10T09:31:09.607Z,31.37
2018-11-10T09:33:43.422Z,29.60
2018-11-10T09:36:17.231Z,25.07
2018-11-10T09:38:56.410Z,26.17
2018-11-10T09:41:31.487Z,30.33
2018-11-10T09:44:05.945Z,28.37
2018-11-10T09:46:46.190Z,26.37
2018-11-10T09:49:25.599Z,28.00
2018-11-10T09:52:06.706Z,29.77
2018-11-10T09:54:45.836Z,27.50
2018-11-10T09:57:29.168Z,27.17
2018-11-10T10:00:04.916Z,31.60
2018-11-10T10:02:42.379Z,28.13
2018-11-10T10:05:24.894Z,26.80
2018-11-10T10:08:00.469Z,28.50
2018-11-10T10:13:37.779Z,28.93
2018-11-10T10:16:20.081Z,26.00
2018-11-10T10:19:04.548Z,27.57
2018-11-10T10:21:42.444Z,27.57
2018-11-10T10:24:26.694Z,26.60
2018-11-10T10:27:21.169Z,28.37
2018-11-10T10:46:39.956Z,26.63
2018-11-10T10:49:22.267Z,26.40
2018-11-10T10:51:56.889Z,26.47
2018-11-10T10:54:35.096Z,26.40
2018-11-10T10:57:08.357Z,25.20
2018-11-10T10:59:52.645Z,26.17
2018-11-10T11:02:32.691Z,25.87
2018-11-10T11:05:18.179Z,27.27
2018-11-10T11:07:55.263Z,27.97
2018-11-10T11:13:10.449Z,26.10
2018-11-10T11:15:54.242Z,28.63
2018-11-10T11:18:32.605Z,23.30
2018-11-10T11:21:12.931Z,26.27
2018-11-10T11:24:01.069Z,27.07
2018-11-10T11:26:35.774Z,25.80
2018-11-10T11:29:23.512Z,27.07
2018-11-10T11:31:58.607Z,28.03
2018-11-10T11:34:35.566Z,42.70
2018-11-10T11:37:12.339Z,28.30
2018-11-10T11:39:50.979Z,27.00
2018-11-10T11:45:09.963Z,32.97
2018-11-10T11:47:44.758Z,28.77
2018-11-10T11:50:20.033Z,24.83
2018-11-10T11:52:57.218Z,26.77
2018-11-10T11:55:36.501Z,21.53
2018-11-10T11:58:14.066Z,21.33
2018-11-10T12:00:56.216Z,23.97
2018-11-10T12:03:30.338Z,25.07
2018-11-10T12:09:07.264Z,24.77
2018-11-10T12:11:47.533Z,23.60
2018-11-10T12:14:23.065Z,25.40
2018-11-10T12:17:06.082Z,26.30
2018-11-10T12:19:44.037Z,29.00
2018-11-10T12:22:21.286Z,25.30
2018-11-10T12:24:54.723Z,15.60
2018-11-10T12:27:34.245Z,22.03
2018-11-10T12:33:05.281Z,25.63
2018-11-10T12:35:46.229Z,22.30
2018-11-10T12:38:19.210Z,21.73
2018-11-10T12:40:56.220Z,20.17
2018-11-10T12:43:31.052Z,25.00
2018-11-10T12:46:11.721Z,21.53
2018-11-10T12:51:44.334Z,20.43
2018-11-10T12:54:20.864Z,20.00
2018-11-10T12:56:57.873Z,21.90
2018-11-10T12:59:35.406Z,22.93
2018-11-10T13:02:13.986Z,22.77
2018-11-10T13:04:50.858Z,20.43
2018-11-10T13:07:43.550Z,21.13
2018-11-10T13:10:27.697Z,23.17
2018-11-10T13:13:09.344Z,23.43
2018-11-10T13:15:59.031Z,24.17
2018-11-10T13:18:37.753Z,25.17
2018-11-10T13:21:25.167Z,24.87
2018-11-10T13:24:13.747Z,29.57
2018-11-10T13:26:59.723Z,23.23
2018-11-10T13:29:39.570Z,16.77
2018-11-10T13:35:43.088Z,8.17
2018-11-10T13:44:30.074Z,10.27
2018-11-10T13:47:16.042Z,8.33
2018-11-10T13:49:55.512Z,10.00
2018-11-10T13:52:39.706Z,7.77
2018-11-10T13:55:26.643Z,14.10
2018-11-10T13:58:12.052Z,9.67
2018-11-10T14:00:48.202Z,8.37
2018-11-10T14:03:24.267Z,9.13
2018-11-10T14:06:20.708Z,7.30
2018-11-10T14:09:01.274Z,7.73
2018-11-10T14:11:43.725Z,7.43
2018-11-10T14:14:25.243Z,7.80
2018-11-10T14:17:10.749Z,6.63
2018-11-10T14:19:50.668Z,8.93
2018-11-10T14:22:32.244Z,7.93
2018-11-10T14:25:09.680Z,6.67
2018-11-10T14:27:48.272Z,5.83
2018-11-10T14:30:25.453Z,7.80
2018-11-10T14:33:09.401Z,8.47
2018-11-10T14:35:49.756Z,7.97
2018-11-10T14:38:28.972Z,5.37
2018-11-10T14:43:49.301Z,5.70
2018-11-10T14:46:23.523Z,7.60
2018-11-10T14:48:59.704Z,8.20
2018-11-10T14:51:34.109Z,5.87
2018-11-10T14:54:13.203Z,8.37
2018-11-10T15:00:31.299Z,6.27
2018-11-10T15:03:07.070Z,6.03
2018-11-10T15:05:43.698Z,7.33
2018-11-10T15:08:20.499Z,6.60
2018-11-10T15:11:06.703Z,8.90
2018-11-10T15:13:44.302Z,5.60
2018-11-10T15:16:33.256Z,4.80
2018-11-10T15:24:48.265Z,8.57
2018-11-10T15:27:22.680Z,7.87
2018-11-10T15:29:59.768Z,7.37
2018-11-10T15:32:35.827Z,9.50
2018-11-10T15:35:20.499Z,7.90
2018-11-10T15:37:57.669Z,5.50
2018-11-10T15:40:40.900Z,8.63
2018-11-10T15:43:21.806Z,8.97
2018-11-10T15:46:00.051Z,7.13
2018-11-10T15:48:45.362Z,7.50
2018-11-10T15:51:19.168Z,7.03
2018-11-10T15:53:54.577Z,6.50
2018-11-10T15:56:31.760Z,5.20
2018-11-10T15:59:09.694Z,6.23
2018-11-10T16:01:40.537Z,4.93
2018-11-10T16:04:19.233Z,5.67
2018-11-10T16:06:55.010Z,5.73
2018-11-10T16:09:41.306Z,6.77
2018-11-10T16:12:25.127Z,7.33
2018-11-10T16:15:02.333Z,4.67
2018-11-10T16:17:41.981Z,7.50
2018-11-10T16:20:17.830Z,6.47
2018-11-10T16:22:59.317Z,5.60
2018-11-10T16:25:35.994Z,5.57
2018-11-10T16:28:21.012Z,3.93
2018-11-10T16:30:55.892Z,3.80
2018-11-10T16:33:33.999Z,3.73
2018-11-10T16:36:16.925Z,5.43
2018-11-10T16:39:07.212Z,4.33
2018-11-10T16:41:44.401Z,3.60
2018-11-10T16:44:22.714Z,4.30
2018-11-10T16:47:06.859Z,8.60
2018-11-10T16:52:36.999Z,6.30
2018-11-10T16:55:15.610Z,4.23
2018-11-10T16:57:50.142Z,8.97
2018-11-10T17:00:27.430Z,10.00
2018-11-10T17:03:02.635Z,7.87
2018-11-10T17:05:40.959Z,8.37
2018-11-10T17:08:22.984Z,9.00
2018-11-10T17:11:03.336Z,8.03
2018-11-10T17:13:38.559Z,6.67
2018-11-10T17:16:32.252Z,4.97
2018-11-10T17:19:14.145Z,6.43
2018-11-10T17:21:52.167Z,9.40
2018-11-10T17:24:36.095Z,4.47
2018-11-10T17:27:08.313Z,3.80
2018-11-10T17:29:42.789Z,5.03
2018-11-10T17:32:18.505Z,3.00
2018-11-10T17:34:55.011Z,3.43
2018-11-10T17:37:34.870Z,6.67
2018-11-10T17:40:15.654Z,5.13
2018-11-10T17:42:50.966Z,4.13
2018-11-10T17:45:29.686Z,2.57
2018-11-10T17:48:11.145Z,2.67
2018-11-10T17:50:49.453Z,2.80
2018-11-10T17:53:22.990Z,3.33
2018-11-10T17:56:00.479Z,2.60
2018-11-10T17:58:38.688Z,3.50
2018-11-10T18:01:17.318Z,4.20
2018-11-10T18:03:58.474Z,4.10
2018-11-10T18:06:33.829Z,4.87
2018-11-10T18:09:14.802Z,3.07
2018-11-10T18:11:51.401Z,3.77
2018-11-10T18:14:36.310Z,2.80
2018-11-10T18:17:15.781Z,4.57
2018-11-10T18:19:52.966Z,3.33
2018-11-10T18:22:32.815Z,5.30
2018-11-10T18:25:11.760Z,3.40
2018-11-10T18:27:43.303Z,3.93
2018-11-10T18:30:20.549Z,2.90
2018-11-10T18:32:55.709Z,4.47
2018-11-10T18:35:35.578Z,3.33
2018-11-10T18:38:20.029Z,4.23
2018-11-10T18:41:01.070Z,4.40
2018-11-10T18:43:40.917Z,2.97
2018-11-10T18:46:22.333Z,2.57
2018-11-10T18:49:01.165Z,3.90
2018-11-10T18:51:34.864Z,4.00
2018-11-10T18:54:10.204Z,4.03
2018-11-10T18:56:46.530Z,2.40
2018-11-10T18:59:19.155Z,3.67
2018-11-10T19:01:53.672Z,2.80
2018-11-10T19:04:27.702Z,3.90
2018-11-10T19:06:58.830Z,2.50
2018-11-10T19:09:32.411Z,4.00
2018-11-10T19:12:03.188Z,2.73
2018-11-10T19:14:34.391Z,3.77
2018-11-10T19:17:11.353Z,3.60
2018-11-10T19:19:44.179Z,3.30
2018-11-10T19:22:16.954Z,5.60
2018-11-10T19:24:48.917Z,2.50
2018-11-10T19:27:22.892Z,2.20
2018-11-10T19:29:56.407Z,2.43
2018-11-10T19:32:28.401Z,2.20
2018-11-10T19:35:00.866Z,2.83
2018-11-10T19:37:34.446Z,2.80
2018-11-10T19:40:10.207Z,2.60
2018-11-10T19:42:45.562Z,5.63
2018-11-10T19:45:22.850Z,4.37
2018-11-10T19:47:54.200Z,3.83
2018-11-10T19:50:27.606Z,4.90
2018-11-10T19:53:03.430Z,5.20
2018-11-10T19:55:34.673Z,4.50
2018-11-10T19:58:08.393Z,4.40
2018-11-10T20:00:39.948Z,4.63
2018-11-10T20:03:13.035Z,5.23
2018-11-10T20:05:46.032Z,3.83
2018-11-10T20:08:17.174Z,4.77
2018-11-10T20:10:50.160Z,6.43
2018-11-10T20:13:27.545Z,4.33
2018-11-10T20:15:58.588Z,4.10
2018-11-10T20:18:30.249Z,4.77
2018-11-10T20:21:03.556Z,7.70
2018-11-10T20:23:40.013Z,4.50
2018-11-10T20:26:12.654Z,4.37
2018-11-10T20:28:47.519Z,4.60
2018-11-10T20:31:26.142Z,3.60
2018-11-10T20:34:00.255Z,6.90
2018-11-10T20:39:12.793Z,6.57
2018-11-10T20:41:43.315Z,6.07
2018-11-10T20:44:16.095Z,7.83
2018-11-10T20:46:46.631Z,7.83
2018-11-10T20:49:21.417Z,11.10
2018-11-10T20:52:02.544Z,9.70
2018-11-10T20:54:38.204Z,10.30
2018-11-10T20:57:13.793Z,10.30
2018-11-10T20:59:49.624Z,8.87
2018-11-10T21:02:21.764Z,10.33
2018-11-10T21:04:58.495Z,10.10
2018-11-10T21:07:33.673Z,10.90
2018-11-10T21:10:09.212Z,10.07
2018-11-10T21:12:45.004Z,11.10
2018-11-10T21:15:20.712Z,12.20
2018-11-10T21:17:51.770Z,12.17
2018-11-10T21:20:24.335Z,9.70
2018-11-10T21:22:59.489Z,10.83
2018-11-10T21:25:40.345Z,9.60
2018-11-10T21:28:12.590Z,11.37
2018-11-10T21:30:47.137Z,10.27
2018-11-10T21:33:19.234Z,10.00
2018-11-10T21:35:50.513Z,11.33
2018-11-10T21:38:23.176Z,11.10
2018-11-10T21:41:08.261Z,7.40
2018-11-10T21:43:39.939Z,7.37
2018-11-10T21:46:18.642Z,7.17
2018-11-10T21:48:50.759Z,6.53
2018-11-10T21:51:24.451Z,6.13
2018-11-10T21:53:57.500Z,6.90
2018-11-10T21:56:34.581Z,5.60
2018-11-10T21:59:07.573Z,4.77
2018-11-10T22:01:39.881Z,5.27
2018-11-10T22:04:14.783Z,4.23
2018-11-10T22:06:51.911Z,5.93
2018-11-10T22:09:30.943Z,3.80
2018-11-10T22:12:06.536Z,4.20
2018-11-10T22:14:42.950Z,3.80
2018-11-10T22:17:20.040Z,4.10
2018-11-10T22:19:56.351Z,4.13
2018-11-10T22:22:36.067Z,4.50
2018-11-10T22:25:13.205Z,5.40
2018-11-10T22:27:47.658Z,5.33
2018-11-10T22:30:21.756Z,2.90
2018-11-10T22:32:57.579Z,4.80
2018-11-10T22:35:31.571Z,4.37
2018-11-10T22:40:47.067Z,3.00
2018-11-10T22:43:22.148Z,4.30
2018-11-10T22:46:01.763Z,3.83
2018-11-10T22:48:38.377Z,3.13
2018-11-10T22:51:12.430Z,3.30
2018-11-10T22:53:49.812Z,5.97
2018-11-10T22:56:31.679Z,4.17
2018-11-10T22:59:15.997Z,4.27
2018-11-10T23:01:54.652Z,3.27
2018-11-10T23:04:29.066Z,4.10
2018-11-10T23:07:04.722Z,4.93
2018-11-10T23:09:39.241Z,4.23
2018-11-10T23:12:12.028Z,3.40
2018-11-10T23:14:47.370Z,3.30
2018-11-10T23:17:24.140Z,3.73
2018-11-10T23:19:57.134Z,4.80
2018-11-10T23:22:29.726Z,3.47
2018-11-10T23:25:02.828Z,6.60
2018-11-10T23:27:33.326Z,8.17
2018-11-10T23:30:08.089Z,6.57
2018-11-10T23:32:42.577Z,5.37
2018-11-10T23:35:18.129Z,7.50
2018-11-10T23:37:49.579Z,6.13
2018-11-10T23:40:20.767Z,9.00
2018-11-10T23:42:52.589Z,10.47
2018-11-10T23:45:23.627Z,11.93
2018-11-10T23:47:56.721Z,14.53
2018-11-10T23:50:30.917Z,14.13
2018-11-10T23:53:05.147Z,11.27
2018-11-10T23:55:40.285Z,14.33
2018-11-10T23:58:20.339Z,14.63
